createdAt,value
2023-04-09T00:02:11.682Z,5.20
2023-04-09T00:07:12.699Z,5.22
2023-04-09T00:12:13.850Z,5.13
2023-04-09T00:17:15.117Z,5.07
2023-04-09T00:22:16.084Z,5.05
2023-04-09T00:27:17.092Z,5.03
2023-04-09T00:32:18.055Z,5.00
2023-04-09T00:37:19.071Z,4.93
2023-04-09T00:42:21.037Z,4.89
2023-04-09T00:47:22.035Z,4.91
2023-04-09T00:52:24.086Z,4.91
2023-04-09T00:57:25.248Z,4.90
2023-04-09T01:02:27.776Z,4.91
2023-04-09T01:07:59.100Z,4.93
2023-04-09T01:13:12.962Z,4.93
2023-04-09T01:18:24.351Z,4.91
2023-04-09T01:24:01.197Z,4.92
2023-04-09T01:29:11.560Z,4.99
2023-04-09T01:34:14.223Z,5.07
2023-04-09T01:39:15.614Z,5.11
2023-04-09T01:44:17.593Z,5.05
2023-04-09T01:49:19.322Z,5.04
2023-04-09T01:54:20.558Z,4.98
2023-04-09T01:59:21.789Z,4.93
2023-04-09T02:04:24.186Z,4.89
2023-04-09T02:09:30.380Z,4.82
2023-04-09T02:14:32.777Z,4.86
2023-04-09T02:19:45.402Z,4.96
2023-04-09T02:24:47.820Z,5.08
2023-04-09T02:29:48.804Z,5.13
2023-04-09T02:34:49.780Z,5.11
2023-04-09T02:39:50.814Z,5.10
2023-04-09T02:44:52.003Z,5.10
2023-04-09T02:49:53.272Z,5.12
2023-04-09T02:54:54.854Z,5.07
2023-04-09T02:59:55.851Z,5.01
2023-04-09T03:04:56.868Z,4.95
2023-04-09T03:09:58.585Z,4.95
2023-04-09T03:14:59.650Z,5.00
2023-04-09T03:20:00.687Z,5.07
2023-04-09T03:25:09.120Z,5.08
2023-04-09T03:30:11.429Z,5.02
2023-04-09T03:35:16.868Z,5.08
2023-04-09T03:40:18.806Z,5.07
2023-04-09T03:45:20.768Z,5.01
2023-04-09T03:50:34.828Z,5.01
2023-04-09T03:55:37.191Z,5.00
2023-04-09T04:00:40.987Z,5.01
2023-04-09T04:06:03.052Z,5.07
2023-04-09T04:11:10.549Z,5.13
2023-04-09T04:16:17.794Z,5.10
2023-04-09T04:21:19.533Z,5.04
2023-04-09T04:26:28.111Z,4.98
2023-04-09T04:31:29.346Z,5.03
2023-04-09T04:36:32.074Z,5.08
2023-04-09T04:41:33.452Z,5.14
2023-04-09T04:46:57.606Z,5.15
2023-04-09T04:51:58.693Z,5.20
2023-04-09T04:57:00.884Z,5.32
2023-04-09T05:02:11.815Z,5.55
2023-04-09T05:07:29.055Z,5.78
2023-04-09T05:12:31.403Z,5.89
2023-04-09T05:17:32.854Z,6.00
2023-04-09T05:22:35.579Z,6.13
2023-04-09T05:27:37.432Z,6.33
2023-04-09T05:32:39.565Z,6.53
2023-04-09T05:37:41.671Z,6.64
2023-04-09T05:42:43.072Z,6.71
2023-04-09T05:47:52.889Z,6.75
2023-04-09T05:52:56.635Z,7.11
2023-04-09T05:58:02.059Z,7.17
2023-04-09T06:03:04.170Z,7.09
2023-04-09T06:08:05.799Z,7.14
2023-04-09T06:13:06.823Z,7.24
2023-04-09T06:18:07.926Z,7.31
2023-04-09T06:23:08.991Z,7.36
2023-04-09T06:28:10.847Z,7.32
2023-04-09T06:33:11.899Z,7.32
2023-04-09T06:38:12.982Z,7.40
2023-04-09T06:43:13.901Z,7.43
2023-04-09T06:48:22.442Z,7.52
2023-04-09T06:53:23.394Z,7.56
2023-04-09T06:58:24.786Z,7.68
2023-04-09T07:03:27.259Z,7.86
2023-04-09T07:08:28.770Z,8.05
2023-04-09T07:13:30.651Z,8.12
2023-04-09T07:18:31.714Z,8.11
2023-04-09T07:23:36.549Z,8.19
2023-04-09T07:28:39.873Z,8.32
2023-04-09T07:33:41.638Z,8.46
2023-04-09T07:38:44.232Z,8.70
2023-04-09T07:43:45.391Z,8.89
2023-04-09T07:48:48.300Z,9.19
2023-04-09T07:53:49.489Z,9.56
2023-04-09T07:58:50.778Z,9.83
2023-04-09T08:03:52.140Z,10.06
2023-04-09T08:08:53.529Z,10.33
2023-04-09T08:13:55.754Z,10.46
2023-04-09T08:18:56.988Z,10.02
2023-04-09T08:24:03.602Z,9.68
2023-04-09T08:29:04.818Z,9.84
2023-04-09T08:34:06.043Z,9.85
2023-04-09T08:39:06.983Z,9.82
2023-04-09T08:44:07.937Z,9.66
2023-04-09T08:49:10.126Z,9.43
2023-04-09T08:54:15.915Z,9.71
2023-04-09T08:59:20.557Z,9.72
2023-04-09T09:04:21.675Z,9.65
2023-04-09T09:09:22.971Z,9.70
2023-04-09T09:14:23.925Z,9.71
2023-04-09T09:19:24.993Z,9.77
2023-04-09T09:24:26.778Z,9.97
2023-04-09T09:29:28.308Z,10.25
2023-04-09T09:34:29.532Z,10.49
2023-04-09T09:39:43.993Z,10.75
2023-04-09T09:44:45.009Z,11.03
2023-04-09T09:49:49.002Z,11.17
2023-04-09T09:54:52.628Z,11.17
2023-04-09T10:00:00.005Z,11.19
2023-04-09T10:05:01.273Z,11.22
2023-04-09T10:10:12.702Z,11.21
2023-04-09T10:15:14.275Z,11.19
2023-04-09T10:20:31.992Z,11.20
2023-04-09T10:25:33.606Z,11.32
2023-04-09T10:30:36.017Z,11.43
2023-04-09T10:35:37.157Z,11.52
2023-04-09T10:40:48.722Z,11.51
2023-04-09T10:45:53.782Z,11.29
2023-04-09T10:50:54.898Z,11.18
2023-04-09T10:55:55.957Z,10.99
2023-04-09T11:01:00.985Z,11.10
2023-04-09T11:06:08.486Z,11.18
2023-04-09T11:11:09.484Z,11.24
2023-04-09T11:16:11.184Z,11.33
2023-04-09T11:21:12.909Z,11.44
2023-04-09T11:26:13.884Z,11.73
2023-04-09T11:31:15.817Z,11.98
2023-04-09T11:36:17.204Z,12.30
2023-04-09T11:41:18.165Z,12.41
2023-04-09T11:46:21.091Z,12.62
2023-04-09T11:51:22.910Z,12.66
2023-04-09T11:56:24.601Z,12.89
2023-04-09T12:01:31.842Z,13.35
2023-04-09T12:06:39.495Z,13.66
2023-04-09T12:11:43.623Z,13.74
2023-04-09T12:16:44.873Z,13.75
2023-04-09T12:21:52.233Z,13.65
2023-04-09T12:26:53.297Z,13.64
2023-04-09T12:31:54.343Z,13.70
2023-04-09T12:36:55.405Z,13.84
2023-04-09T12:41:57.057Z,14.06
2023-04-09T12:46:58.146Z,14.11
2023-04-09T12:51:59.283Z,14.21
2023-04-09T12:57:00.402Z,14.07
2023-04-09T13:02:01.581Z,13.77
2023-04-09T13:07:02.710Z,13.91
2023-04-09T13:12:03.665Z,13.96
2023-04-09T13:17:05.143Z,13.84
2023-04-09T13:22:08.176Z,13.85
2023-04-09T13:27:10.405Z,13.86
2023-04-09T13:32:11.527Z,14.09
2023-04-09T13:37:12.456Z,13.99
2023-04-09T13:42:14.524Z,13.79
2023-04-09T13:47:16.810Z,13.79
2023-04-09T13:52:17.849Z,14.00
2023-04-09T13:57:19.082Z,13.82
2023-04-09T14:02:20.214Z,13.84
2023-04-09T14:07:21.263Z,13.84
2023-04-09T14:12:22.217Z,13.60
2023-04-09T14:17:23.252Z,13.30
2023-04-09T14:22:25.741Z,12.90
2023-04-09T14:27:26.848Z,12.54
2023-04-09T14:32:27.891Z,12.18
2023-04-09T14:37:29.117Z,11.84
2023-04-09T14:42:30.123Z,11.54
2023-04-09T14:47:31.241Z,11.37
2023-04-09T14:52:32.518Z,11.33
2023-04-09T14:57:33.448Z,11.33
2023-04-09T15:02:34.804Z,11.20
2023-04-09T15:07:36.298Z,11.07
2023-04-09T15:12:37.253Z,10.93
2023-04-09T15:17:38.289Z,10.79
2023-04-09T15:22:39.952Z,10.75
2023-04-09T15:27:40.914Z,10.62
2023-04-09T15:32:41.884Z,10.29
2023-04-09T15:37:42.884Z,10.43
2023-04-09T15:42:44.086Z,10.39
2023-04-09T15:47:45.733Z,10.36
2023-04-09T15:52:48.288Z,10.26
2023-04-09T15:57:49.537Z,10.15
2023-04-09T16:02:52.332Z,10.01
2023-04-09T16:07:53.306Z,9.97
2023-04-09T16:12:54.247Z,9.90
2023-04-09T16:17:56.059Z,9.82
2023-04-09T16:22:57.123Z,9.70
2023-04-09T16:27:58.232Z,9.54
2023-04-09T16:32:59.199Z,9.36
2023-04-09T16:38:00.488Z,9.21
2023-04-09T16:43:01.939Z,9.05
2023-04-09T16:48:05.606Z,8.93
2023-04-09T16:53:07.332Z,8.88
2023-04-09T16:58:08.413Z,8.85
2023-04-09T17:03:09.531Z,8.78
2023-04-09T17:08:11.198Z,8.66
2023-04-09T17:13:12.169Z,8.56
2023-04-09T17:18:13.091Z,8.53
2023-04-09T17:23:14.248Z,8.55
2023-04-09T17:28:16.986Z,8.53
2023-04-09T17:33:19.742Z,8.45
2023-04-09T17:38:20.835Z,8.39
2023-04-09T17:43:22.082Z,8.35
2023-04-09T17:48:23.104Z,8.28
2023-04-09T17:53:24.190Z,8.23
2023-04-09T17:58:25.772Z,8.14
2023-04-09T18:03:26.915Z,8.05
2023-04-09T18:08:28.199Z,8.02
2023-04-09T18:13:29.192Z,7.95
2023-04-09T18:18:30.520Z,7.94
2023-04-09T18:23:32.222Z,7.91
2023-04-09T18:28:33.927Z,7.89
2023-04-09T18:33:34.882Z,7.90
2023-04-09T18:38:36.335Z,7.87
2023-04-09T18:43:37.320Z,7.82
2023-04-09T18:48:38.454Z,7.77
2023-04-09T18:53:40.430Z,7.75
2023-04-09T18:58:41.508Z,7.69
2023-04-09T19:03:44.190Z,7.65
2023-04-09T19:08:46.713Z,7.57
2023-04-09T19:13:47.676Z,7.47
2023-04-09T19:18:48.966Z,7.37
2023-04-09T19:23:50.052Z,7.28
2023-04-09T19:28:51.865Z,7.22
2023-04-09T19:33:53.017Z,7.17
2023-04-09T19:38:54.144Z,7.13
2023-04-09T19:43:55.485Z,7.12
2023-04-09T19:48:56.407Z,7.10
2023-04-09T19:53:57.353Z,7.05
2023-04-09T19:58:58.306Z,6.98
2023-04-09T20:03:59.298Z,6.93
2023-04-09T20:09:01.188Z,6.88
2023-04-09T20:14:03.167Z,6.84
2023-04-09T20:19:04.086Z,6.79
2023-04-09T20:24:06.072Z,6.79
2023-04-09T20:29:07.012Z,6.76
2023-04-09T20:34:07.921Z,6.72
2023-04-09T20:39:10.899Z,6.70
2023-04-09T20:44:12.039Z,6.72
2023-04-09T20:49:13.139Z,6.77
2023-04-09T20:54:14.773Z,6.76
2023-04-09T20:59:16.536Z,6.72
2023-04-09T21:04:17.746Z,6.70
2023-04-09T21:09:19.056Z,6.72
2023-04-09T21:14:25.877Z,6.70
2023-04-09T21:19:26.906Z,6.67
2023-04-09T21:24:27.947Z,6.66
2023-04-09T21:29:29.040Z,6.68
2023-04-09T21:34:30.770Z,6.68
2023-04-09T21:39:31.789Z,6.68
2023-04-09T21:44:33.940Z,6.64
2023-04-09T21:49:39.684Z,6.62
2023-04-09T21:54:45.939Z,6.60
2023-04-09T22:00:01.199Z,6.61
2023-04-09T22:05:07.857Z,6.71
2023-04-09T22:10:09.392Z,6.77
2023-04-09T22:15:11.516Z,6.72
2023-04-09T22:20:17.385Z,6.72
2023-04-09T22:25:22.303Z,6.76
2023-04-09T22:30:23.818Z,6.81
2023-04-09T22:35:24.961Z,6.80
2023-04-09T22:40:28.800Z,6.73
2023-04-09T22:45:31.473Z,6.74
2023-04-09T22:50:32.976Z,6.75
2023-04-09T22:55:33.934Z,6.71
2023-04-09T23:01:00.579Z,6.63
2023-04-09T23:06:01.559Z,6.66
2023-04-09T23:11:04.654Z,6.73
2023-04-09T23:16:10.311Z,6.81
2023-04-09T23:21:12.434Z,6.82
2023-04-09T23:26:13.356Z,6.82
2023-04-09T23:31:14.709Z,6.84
2023-04-09T23:36:15.841Z,6.87
2023-04-09T23:41:17.618Z,6.94
2023-04-09T23:46:19.415Z,6.92
2023-04-09T23:51:22.119Z,6.83
2023-04-09T23:56:23.170Z,6.68
